Time;durP1;ratioP1;P1;durP2;ratioP2;P2;SDS_P1;SDS_P2;PMS_P1;PMS_P2;Temp;Humidity;BMP_temperature;BMP_pressure;BME280_temperature;BME280_humidity;BME280_pressure;Samples;Min_cycle;Max_cycle;Signal;HPM_P1;HPM_P2
2023/01/22 00:00:00;;;;;;;1.85;1.60;;;19.70;53.70;;;;;;4960059;28;20220;-71
2023/01/22 00:02:26;;;;;;;1.90;1.65;;;19.70;53.60;;;;;;4992509;28;20177;-72
2023/01/22 00:04:52;;;;;;;1.80;1.70;;;19.70;53.60;;;;;;4986121;28;20195;-72
2023/01/22 00:07:18;;;;;;;1.70;1.60;;;19.70;53.50;;;;;;4995973;28;20603;-72
2023/01/22 00:09:44;;;;;;;3.38;1.55;;;19.70;53.40;;;;;;4978991;28;20273;-72
2023/01/22 00:12:10;;;;;;;2.78;1.70;;;19.70;53.40;;;;;;5011140;28;20195;-72
2023/01/22 00:14:36;;;;;;;2.47;1.65;;;19.70;53.40;;;;;;4995308;28;20450;-71
2023/01/22 00:17:02;;;;;;;2.08;1.65;;;19.70;53.40;;;;;;4979665;28;20180;-72
2023/01/22 00:19:27;;;;;;;1.70;1.60;;;19.70;53.30;;;;;;4994462;28;20212;-71
2023/01/22 00:21:53;;;;;;;1.70;1.60;;;19.70;53.20;;;;;;4995241;28;20212;-72
2023/01/22 00:24:19;;;;;;;1.73;1.63;;;19.70;53.20;;;;;;4995146;28;20258;-72
2023/01/22 00:26:45;;;;;;;2.53;1.80;;;19.60;53.20;;;;;;4992103;28;20280;-72
2023/01/22 00:29:11;;;;;;;2.20;1.88;;;19.60;53.20;;;;;;5008341;28;20227;-72
2023/01/22 00:31:37;;;;;;;1.80;1.70;;;19.70;53.20;;;;;;5011322;28;20196;-72
2023/01/22 00:34:03;;;;;;;2.00;1.80;;;19.70;53.20;;;;;;4995014;28;20223;-72
2023/01/22 00:36:30;;;;;;;2.10;1.65;;;19.70;53.20;;;;;;4995025;28;20180;-72
2023/01/22 00:38:56;;;;;;;1.83;1.73;;;19.70;53.20;;;;;;4994877;28;20195;-72
2023/01/22 00:41:21;;;;;;;1.98;1.88;;;19.70;53.10;;;;;;4995009;28;20177;-72
2023/01/22 00:43:48;;;;;;;1.42;1.33;;;19.70;53.10;;;;;;5014548;28;20238;-72
2023/01/22 00:46:16;;;;;;;1.58;1.48;;;19.70;53.00;;;;;;4979119;28;20237;-72
2023/01/22 00:48:44;;;;;;;1.70;1.60;;;19.70;53.10;;;;;;4979034;28;20180;-72
2023/01/22 00:51:11;;;;;;;1.83;1.70;;;19.70;53.10;;;;;;4994898;28;20668;-72
2023/01/22 00:53:40;;;;;;;1.80;1.70;;;19.70;53.10;;;;;;4994651;28;20216;-72
2023/01/22 00:56:06;;;;;;;1.63;1.50;;;19.70;53.00;;;;;;4978883;28;20180;-72
2023/01/22 00:58:32;;;;;;;1.73;1.63;;;19.70;53.00;;;;;;4975223;28;20193;-72
2023/01/22 01:01:02;;;;;;;1.98;1.60;;;19.70;52.90;;;;;;4972150;28;20237;-72
2023/01/22 01:03:31;;;;;;;2.85;1.98;;;19.60;52.80;;;;;;4995036;28;20196;-72
2023/01/22 01:06:13;;;;;;;1.98;1.88;;;19.70;52.90;;;;;;4995075;28;20191;-72
2023/01/22 01:08:41;;;;;;;2.50;1.67;;;19.60;52.80;;;;;;4994493;28;20206;-72
2023/01/22 01:11:13;;;;;;;1.88;1.77;;;19.60;52.70;;;;;;4978540;28;20287;-71
2023/01/22 01:13:41;;;;;;;1.60;1.50;;;19.60;52.80;;;;;;4990957;28;20216;-73
2023/01/22 01:16:19;;;;;;;1.90;1.80;;;19.60;52.70;;;;;;4975237;28;20184;-72
2023/01/22 01:18:47;;;;;;;2.00;1.80;;;19.60;52.70;;;;;;4994469;28;20648;-72
2023/01/22 01:21:13;;;;;;;1.67;1.58;;;19.60;52.60;;;;;;4974691;28;20299;-72
2023/01/22 01:23:41;;;;;;;1.55;1.45;;;19.60;52.70;;;;;;4962452;28;20173;-72
2023/01/22 01:26:10;;;;;;;1.80;1.70;;;19.60;52.70;;;;;;4963031;28;20208;-73
2023/01/22 01:28:39;;;;;;;2.97;1.85;;;19.60;52.60;;;;;;4973333;28;20275;-71
2023/01/22 01:31:09;;;;;;;1.73;1.63;;;19.60;52.60;;;;;;4998244;28;20266;-72
2023/01/22 01:33:35;;;;;;;1.95;1.50;;;19.60;52.60;;;;;;4998155;28;20207;-71
2023/01/22 01:36:09;;;;;;;1.77;1.63;;;19.60;52.50;;;;;;4982330;28;20176;-71
2023/01/22 01:38:36;;;;;;;1.75;1.65;;;19.60;52.60;;;;;;4982559;28;20231;-72
2023/01/22 01:41:02;;;;;;;1.90;1.80;;;19.60;52.50;;;;;;4998168;28;20203;-71
2023/01/22 01:43:28;;;;;;;2.30;1.88;;;19.60;52.50;;;;;;5015776;28;20275;-72
2023/01/22 01:45:59;;;;;;;1.80;1.70;;;19.60;52.40;;;;;;4998306;28;20691;-71
2023/01/22 01:48:42;;;;;;;1.67;1.58;;;19.60;52.40;;;;;;5015634;28;20192;-72
2023/01/22 01:51:21;;;;;;;1.60;1.50;;;19.60;52.40;;;;;;4982113;28;20239;-72
2023/01/22 01:53:50;;;;;;;1.70;1.60;;;19.60;52.40;;;;;;4982145;28;20800;-72
2023/01/22 01:56:25;;;;;;;2.42;1.55;;;19.60;52.30;;;;;;5000653;28;20275;-72
2023/01/22 01:59:01;;;;;;;1.77;1.67;;;19.60;52.30;;;;;;4998065;28;20197;-72
2023/01/22 02:01:27;;;;;;;1.77;1.67;;;19.60;52.30;;;;;;4992395;28;20295;-72
2023/01/22 02:03:53;;;;;;;1.73;1.63;;;19.60;52.30;;;;;;4981711;28;20275;-72
2023/01/22 02:06:20;;;;;;;1.83;1.73;;;19.60;52.30;;;;;;4998068;28;20196;-72
2023/01/22 02:08:49;;;;;;;1.95;1.85;;;19.60;52.30;;;;;;4981437;28;20202;-72
2023/01/22 02:11:18;;;;;;;1.83;1.73;;;19.60;52.30;;;;;;5015061;28;20208;-72
2023/01/22 02:14:15;;;;;;;1.95;1.52;;;19.60;52.20;;;;;;4997630;28;20211;-72
2023/01/22 02:16:41;;;;;;;2.10;2.00;;;19.60;52.20;;;;;;5004852;28;20235;-72
2023/01/22 02:19:07;;;;;;;1.98;1.70;;;19.60;52.20;;;;;;4997395;28;20211;-72
2023/01/22 02:21:42;;;;;;;2.05;1.85;;;19.60;52.20;;;;;;4997475;28;20195;-72
2023/01/22 02:24:12;;;;;;;1.90;1.80;;;19.60;52.20;;;;;;4997521;28;20199;-72
2023/01/22 02:26:40;;;;;;;1.80;1.70;;;19.60;52.20;;;;;;4997444;28;20200;-73
2023/01/22 02:29:10;;;;;;;2.20;2.00;;;19.60;52.20;;;;;;4981457;28;20667;-72
2023/01/22 02:31:38;;;;;;;1.98;1.88;;;19.60;52.20;;;;;;4981042;28;20202;-72
2023/01/22 02:34:05;;;;;;;2.47;1.92;;;19.60;52.20;;;;;;5013267;28;20220;-72
2023/01/22 02:36:34;;;;;;;1.90;1.80;;;19.60;52.20;;;;;;4981351;28;20184;-72
2023/01/22 02:39:00;;;;;;;1.85;1.75;;;19.60;52.10;;;;;;4981131;28;20172;-72
2023/01/22 02:41:26;;;;;;;1.95;1.85;;;19.60;52.10;;;;;;4997180;28;20192;-72
2023/01/22 02:43:53;;;;;;;1.75;1.65;;;19.60;52.10;;;;;;4981076;28;20225;-72
2023/01/22 02:46:21;;;;;;;2.47;2.28;;;19.60;52.10;;;;;;4981319;28;20585;-72
2023/01/22 02:48:48;;;;;;;2.10;2.00;;;19.60;52.00;;;;;;4997556;28;20283;-72
2023/01/22 02:51:15;;;;;;;2.00;1.90;;;19.50;52.00;;;;;;5013135;28;20218;-72
2023/01/22 02:53:43;;;;;;;1.95;1.80;;;19.50;52.00;;;;;;5013533;28;20277;-72
2023/01/22 02:56:10;;;;;;;1.80;1.70;;;19.60;52.00;;;;;;4980691;28;20184;-72
2023/01/22 02:58:37;;;;;;;1.83;1.73;;;19.50;52.00;;;;;;4980750;28;20173;-72
2023/01/22 03:01:20;;;;;;;1.90;1.80;;;19.50;52.00;;;;;;4996554;28;20707;-72
2023/01/22 03:03:57;;;;;;;2.25;2.05;;;19.50;51.90;;;;;;4997031;28;20196;-72
2023/01/22 03:06:26;;;;;;;2.30;1.88;;;19.50;51.80;;;;;;4997948;28;20219;-72
2023/01/22 03:08:58;;;;;;;2.53;2.33;;;19.50;51.80;;;;;;4962658;28;20181;-72
2023/01/22 03:11:28;;;;;;;2.22;2.05;;;19.60;51.90;;;;;;4977042;28;20173;-72
2023/01/22 03:22:17;;;;;;;2.40;2.20;;;19.50;51.70;;;;;;4996523;28;20180;-72
2023/01/22 03:24:49;;;;;;;1.88;1.77;;;19.50;51.70;;;;;;4996354;28;20215;-72
2023/01/22 03:27:17;;;;;;;1.80;1.70;;;19.50;51.80;;;;;;4980571;28;20199;-72
2023/01/22 03:29:44;;;;;;;1.90;1.80;;;19.50;51.70;;;;;;4979959;28;20250;-71
2023/01/22 03:32:10;;;;;;;1.80;1.70;;;19.50;51.70;;;;;;4980133;28;20586;-71
2023/01/22 03:34:36;;;;;;;1.88;1.77;;;19.50;51.60;;;;;;4996512;28;20220;-71
2023/01/22 03:37:06;;;;;;;1.90;1.80;;;19.50;51.60;;;;;;4996209;28;20253;-71
2023/01/22 03:39:32;;;;;;;1.77;1.67;;;19.50;51.60;;;;;;4995843;28;20279;-71
2023/01/22 03:41:58;;;;;;;1.70;1.60;;;19.50;51.60;;;;;;4996428;28;20254;-71
2023/01/22 03:44:24;;;;;;;1.88;1.77;;;19.50;51.60;;;;;;5012615;28;20207;-72
2023/01/22 03:46:50;;;;;;;2.00;1.90;;;19.50;51.60;;;;;;4978885;28;20192;-72
2023/01/22 03:49:16;;;;;;;2.17;2.08;;;19.50;51.60;;;;;;5009064;28;20220;-72
2023/01/22 03:51:43;;;;;;;1.85;1.75;;;19.50;51.50;;;;;;4979579;28;20215;-71
2023/01/22 03:54:14;;;;;;;1.88;1.77;;;19.50;51.50;;;;;;5013294;28;20239;-71
2023/01/22 03:56:42;;;;;;;1.98;1.88;;;19.50;51.60;;;;;;4979657;28;20192;-72
2023/01/22 03:59:16;;;;;;;2.10;2.00;;;19.50;51.50;;;;;;4997244;28;20222;-72
2023/01/22 04:01:43;;;;;;;1.80;1.70;;;19.50;51.50;;;;;;4980891;28;20198;-72
2023/01/22 04:04:09;;;;;;;2.10;1.90;;;19.50;51.50;;;;;;4995556;28;20199;-72
2023/01/22 04:06:34;;;;;;;1.58;1.48;;;19.50;51.50;;;;;;4979431;28;20196;-72
2023/01/22 04:09:02;;;;;;;1.90;1.80;;;19.50;51.50;;;;;;4979142;28;20243;-72
2023/01/22 04:11:31;;;;;;;1.92;1.77;;;19.50;51.50;;;;;;4979654;28;20184;-71
2023/01/22 04:13:57;;;;;;;1.85;1.75;;;19.50;51.50;;;;;;4995331;28;20238;-72
2023/01/22 04:16:26;;;;;;;1.98;1.88;;;19.50;51.50;;;;;;4979708;28;20546;-72
2023/01/22 04:19:13;;;;;;;1.60;1.50;;;19.50;52.10;;;;;;4994148;28;20258;-72
2023/01/22 04:21:50;;;;;;;2.00;1.90;;;19.50;51.50;;;;;;4980604;28;20196;-72
2023/01/22 04:24:18;;;;;;;1.73;1.63;;;19.50;51.60;;;;;;4995493;28;20612;-72
2023/01/22 04:26:45;;;;;;;1.80;1.70;;;19.50;51.50;;;;;;4995097;28;20673;-72
2023/01/22 04:29:12;;;;;;;1.80;1.70;;;19.50;51.50;;;;;;4995315;28;20212;-72
2023/01/22 04:31:38;;;;;;;1.95;1.85;;;19.40;51.40;;;;;;4978749;28;20192;-72
2023/01/22 04:34:20;;;;;;;1.75;1.65;;;19.50;51.50;;;;;;4981271;28;20230;-72
2023/01/22 04:37:02;;;;;;;1.83;1.73;;;19.50;51.50;;;;;;4989977;28;20187;-72
2023/01/22 04:39:31;;;;;;;2.00;1.90;;;19.40;51.30;;;;;;4994551;28;20227;-72
2023/01/22 04:41:57;;;;;;;1.60;1.50;;;19.50;51.50;;;;;;4979253;28;20273;-72
2023/01/22 04:44:22;;;;;;;2.30;1.80;;;19.50;51.40;;;;;;4992004;28;20196;-72
2023/01/22 04:46:48;;;;;;;2.05;1.80;;;19.40;51.30;;;;;;4993845;28;20184;-72
2023/01/22 04:49:14;;;;;;;2.17;2.08;;;19.40;51.20;;;;;;4978577;28;20306;-72
2023/01/22 04:51:41;;;;;;;2.10;2.00;;;19.50;51.30;;;;;;4979137;28;20263;-72
2023/01/22 04:54:07;;;;;;;1.90;1.80;;;19.40;51.20;;;;;;4994644;28;20723;-72
2023/01/22 04:56:32;;;;;;;1.60;1.50;;;19.40;51.20;;;;;;4978926;28;20176;-72
2023/01/22 04:58:59;;;;;;;1.98;1.88;;;19.40;51.20;;;;;;4994301;28;20184;-72
2023/01/22 05:01:25;;;;;;;2.28;2.08;;;19.40;51.20;;;;;;4997913;23;20232;-63
2023/01/22 05:03:51;;;;;;;1.90;1.80;;;19.40;51.20;;;;;;5008100;28;20216;-66
2023/01/22 05:06:16;;;;;;;1.73;1.63;;;19.40;51.30;;;;;;5008200;28;20181;-66
2023/01/22 05:08:42;;;;;;;1.85;1.70;;;19.40;51.20;;;;;;4975127;28;20180;-65
2023/01/22 05:11:09;;;;;;;2.08;1.92;;;19.40;51.20;;;;;;4975226;28;20559;-66
2023/01/22 05:13:46;;;;;;;2.00;1.90;;;19.40;51.20;;;;;;4991443;28;20214;-65
2023/01/22 05:16:12;;;;;;;2.00;1.85;;;19.40;51.20;;;;;;4991579;28;20263;-65
2023/01/22 05:18:38;;;;;;;1.85;1.75;;;19.40;51.10;;;;;;4991236;28;20189;-66
2023/01/22 05:21:04;;;;;;;1.90;1.80;;;19.40;51.10;;;;;;4974954;28;20208;-65
2023/01/22 05:23:31;;;;;;;2.10;2.00;;;19.40;51.10;;;;;;4991434;28;20184;-65
2023/01/22 05:25:57;;;;;;;1.98;1.70;;;19.40;51.00;;;;;;4975751;28;20233;-65
2023/01/22 05:28:36;;;;;;;2.15;2.05;;;19.40;51.10;;;;;;4957620;28;20193;-65
2023/01/22 05:31:28;;;;;;;2.10;2.00;;;19.40;51.10;;;;;;4964294;28;20236;-66
2023/01/22 05:34:03;;;;;;;1.80;1.70;;;19.40;51.10;;;;;;4956875;28;20219;-64
2023/01/22 05:36:30;;;;;;;2.08;1.88;;;19.40;51.00;;;;;;4956037;28;20655;-66
2023/01/22 05:39:00;;;;;;;2.03;1.83;;;19.40;51.00;;;;;;4956340;28;20220;-65
2023/01/22 05:41:27;;;;;;;1.92;1.83;;;19.40;50.80;;;;;;4971633;28;20205;-66
2023/01/22 05:43:54;;;;;;;2.10;1.92;;;19.40;50.90;;;;;;4972221;28;20685;-65
2023/01/22 05:46:24;;;;;;;1.63;1.52;;;19.40;50.80;;;;;;4969723;28;20195;-66
2023/01/22 05:49:09;;;;;;;1.80;1.70;;;19.40;50.80;;;;;;4984552;28;20204;-65
2023/01/22 05:51:34;;;;;;;1.85;1.75;;;19.40;50.80;;;;;;4974700;28;20201;-64
2023/01/22 05:54:00;;;;;;;1.65;1.55;;;19.40;51.40;;;;;;4991212;28;20212;-66
2023/01/22 05:56:30;;;;;;;1.80;1.70;;;19.40;50.80;;;;;;4975542;28;20185;-64
2023/01/22 05:58:57;;;;;;;1.70;1.60;;;19.40;50.80;;;;;;4990906;28;20185;-64
2023/01/22 06:01:23;;;;;;;2.00;1.90;;;19.40;50.80;;;;;;4974563;28;20224;-65
2023/01/22 06:03:51;;;;;;;1.90;1.80;;;19.40;50.80;;;;;;4990987;28;20189;-66
2023/01/22 06:06:20;;;;;;;1.67;1.58;;;19.30;50.80;;;;;;4991301;28;20721;-66
2023/01/22 06:08:51;;;;;;;1.92;1.83;;;19.40;50.80;;;;;;4971455;28;20190;-66
2023/01/22 06:11:17;;;;;;;1.80;1.70;;;19.40;50.80;;;;;;4975012;28;20244;-65
2023/01/22 06:13:46;;;;;;;1.70;1.60;;;19.40;50.80;;;;;;4969016;28;20206;-66
2023/01/22 06:16:17;;;;;;;1.92;1.83;;;19.30;50.70;;;;;;4959547;28;20205;-64
2023/01/22 06:19:01;;;;;;;2.33;1.88;;;19.40;50.80;;;;;;4988868;28;20217;-66
2023/01/22 06:21:33;;;;;;;1.90;1.80;;;19.40;50.80;;;;;;4975007;28;20210;-66
2023/01/22 06:23:59;;;;;;;1.90;1.80;;;19.30;51.30;;;;;;4959160;28;20186;-66
2023/01/22 06:26:25;;;;;;;1.70;1.60;;;19.30;50.80;;;;;;4974945;28;20653;-66
2023/01/22 06:28:51;;;;;;;1.70;1.60;;;19.30;50.70;;;;;;4958888;28;20269;-66
2023/01/22 06:31:17;;;;;;;2.15;1.95;;;19.30;50.70;;;;;;4974829;28;20218;-65
2023/01/22 06:33:43;;;;;;;2.00;1.90;;;19.40;50.80;;;;;;4974710;28;20214;-66
2023/01/22 06:36:09;;;;;;;1.92;1.83;;;19.40;50.80;;;;;;4958881;28;20182;-65
2023/01/22 06:38:36;;;;;;;1.80;1.70;;;19.40;50.80;;;;;;4982370;28;20189;-65
2023/01/22 06:41:04;;;;;;;1.90;1.80;;;19.30;50.70;;;;;;4977553;28;20690;-66
2023/01/22 06:43:31;;;;;;;1.88;1.70;;;19.30;50.70;;;;;;4977901;28;20200;-65
2023/01/22 06:45:57;;;;;;;1.85;1.75;;;19.30;50.70;;;;;;4993815;28;20195;-65
2023/01/22 06:48:42;;;;;;;1.90;1.80;;;19.30;50.60;;;;;;4963629;28;20191;-65
2023/01/22 06:51:09;;;;;;;1.70;1.60;;;19.30;50.60;;;;;;4958097;28;20225;-65
2023/01/22 06:53:35;;;;;;;1.70;1.60;;;19.30;50.60;;;;;;4958364;28;20177;-64
2023/01/22 06:56:02;;;;;;;1.70;1.60;;;19.30;50.60;;;;;;4974349;28;20604;-65
2023/01/22 06:58:29;;;;;;;1.70;1.60;;;19.40;50.70;;;;;;4974478;28;20228;-63
2023/01/22 07:01:00;;;;;;;1.95;1.80;;;19.30;50.60;;;;;;4973904;28;20248;-65
2023/01/22 07:03:26;;;;;;;1.90;1.80;;;19.30;50.60;;;;;;4982135;28;20196;-64
2023/01/22 07:06:01;;;;;;;1.83;1.73;;;19.30;50.40;;;;;;4994775;28;20177;-64
2023/01/22 07:08:28;;;;;;;2.15;2.05;;;19.30;51.20;;;;;;4994620;28;20176;-65
2023/01/22 07:10:54;;;;;;;1.77;1.67;;;19.30;50.50;;;;;;4991288;28;20323;-65
2023/01/22 07:13:20;;;;;;;2.08;1.98;;;19.30;50.50;;;;;;4965729;28;20268;-64
2023/01/22 07:15:46;;;;;;;1.83;1.73;;;19.30;50.40;;;;;;4963524;28;20188;-63
2023/01/22 07:18:13;;;;;;;2.15;2.00;;;19.40;50.50;;;;;;4977234;28;20271;-64
2023/01/22 07:20:43;;;;;;;1.80;1.70;;;19.30;50.50;;;;;;4984894;28;20232;-66
2023/01/22 07:23:09;;;;;;;1.60;1.50;;;19.30;50.40;;;;;;4999132;28;20273;-65
2023/01/22 07:25:34;;;;;;;1.85;1.65;;;19.30;50.40;;;;;;4982794;28;20633;-65
2023/01/22 07:28:03;;;;;;;1.48;1.38;;;19.30;50.40;;;;;;4993404;28;20200;-64
2023/01/22 07:30:29;;;;;;;1.90;1.80;;;19.30;50.30;;;;;;4973319;28;20719;-65
2023/01/22 07:33:01;;;;;;;2.00;1.90;;;19.30;50.40;;;;;;4987206;28;20194;-65
2023/01/22 07:35:28;;;;;;;2.10;2.00;;;19.30;50.40;;;;;;4995096;28;20213;-65
2023/01/22 07:37:57;;;;;;;1.77;1.67;;;19.30;50.30;;;;;;4982897;28;20189;-65
2023/01/22 07:40:24;;;;;;;1.77;1.67;;;19.30;50.30;;;;;;4981530;28;20272;-64
2023/01/22 07:42:51;;;;;;;1.80;1.70;;;19.30;50.30;;;;;;4981983;28;20228;-66
2023/01/22 07:45:18;;;;;;;1.92;1.83;;;19.30;50.20;;;;;;4982669;28;20189;-65
2023/01/22 07:47:58;;;;;;;2.22;2.10;;;19.30;50.20;;;;;;4981581;28;20207;-65
2023/01/22 07:50:30;;;;;;;2.40;2.20;;;19.30;50.20;;;;;;4976219;28;20240;-64
2023/01/22 07:52:56;;;;;;;2.60;2.40;;;19.30;50.20;;;;;;4986343;28;20188;-65
2023/01/22 07:55:22;;;;;;;2.47;2.30;;;19.30;50.20;;;;;;5001208;28;20252;-64
2023/01/22 07:57:56;;;;;;;2.60;2.40;;;19.30;50.20;;;;;;4972925;28;20432;-66
2023/01/22 08:00:21;;;;;;;2.50;2.28;;;19.30;50.20;;;;;;4962081;28;20276;-64
2023/01/22 08:02:49;;;;;;;2.63;2.42;;;19.30;50.20;;;;;;4981146;28;20269;-64
2023/01/22 08:05:15;;;;;;;2.70;2.50;;;19.30;50.20;;;;;;4994543;28;20185;-64
2023/01/22 08:07:40;;;;;;;2.15;2.05;;;19.30;50.10;;;;;;4978900;28;20233;-65
2023/01/22 08:10:08;;;;;;;2.53;2.33;;;19.30;50.20;;;;;;4959632;28;20212;-65
2023/01/22 08:12:37;;;;;;;2.53;2.40;;;19.30;50.10;;;;;;4976243;28;20203;-65
2023/01/22 08:15:04;;;;;;;2.10;2.00;;;19.30;50.10;;;;;;4968322;28;20243;-65
2023/01/22 08:17:29;;;;;;;2.45;2.25;;;19.30;50.10;;;;;;4985814;28;20268;-64
2023/01/22 08:19:55;;;;;;;2.10;2.00;;;19.30;50.10;;;;;;4972530;28;20308;-66
2023/01/22 08:22:21;;;;;;;2.60;2.40;;;19.30;50.10;;;;;;4982074;28;20269;-65
2023/01/22 08:24:46;;;;;;;2.60;2.40;;;19.30;50.00;;;;;;4964965;28;20263;-65
2023/01/22 08:27:12;;;;;;;2.72;2.53;;;19.30;50.10;;;;;;4975909;28;20613;-65
2023/01/22 08:29:38;;;;;;;2.33;2.13;;;19.30;50.10;;;;;;4991878;28;20201;-63
2023/01/22 08:32:05;;;;;;;3.00;2.80;;;19.30;50.10;;;;;;4967570;28;20212;-65
2023/01/22 08:34:31;;;;;;;2.92;2.72;;;19.30;50.10;;;;;;4991980;28;20244;-64
2023/01/22 08:36:57;;;;;;;3.03;2.83;;;19.30;50.70;;;;;;5000032;28;20227;-65
2023/01/22 08:39:23;;;;;;;3.35;3.15;;;19.30;50.10;;;;;;4986840;28;20190;-65
2023/01/22 08:41:51;;;;;;;3.50;3.20;;;19.30;50.00;;;;;;4973005;28;20224;-66
2023/01/22 08:44:16;;;;;;;3.20;3.00;;;19.30;50.00;;;;;;4985095;28;20201;-65
2023/01/22 08:46:42;;;;;;;3.83;3.53;;;19.30;50.10;;;;;;4984333;28;20243;-65
2023/01/22 08:49:08;;;;;;;3.60;3.30;;;19.30;50.00;;;;;;4990950;28;20390;-66
2023/01/22 08:51:34;;;;;;;3.67;3.38;;;19.30;50.00;;;;;;4990889;28;20227;-65
2023/01/22 08:54:00;;;;;;;3.30;3.10;;;19.30;50.00;;;;;;4983836;28;20231;-65
2023/01/22 08:56:25;;;;;;;3.58;3.28;;;19.30;50.00;;;;;;4992879;28;20185;-64
2023/01/22 08:58:51;;;;;;;3.40;3.20;;;19.30;50.00;;;;;;4974896;28;20263;-66
2023/01/22 09:01:18;;;;;;;3.80;3.50;;;19.40;50.00;;;;;;4968135;28;20315;-66
2023/01/22 09:03:44;;;;;;;3.35;3.15;;;19.30;50.00;;;;;;4985045;28;20260;-64
2023/01/22 09:06:11;;;;;;;3.70;3.40;;;19.30;49.90;;;;;;4988174;28;20625;-64
2023/01/22 09:08:37;;;;;;;3.58;3.35;;;19.40;50.00;;;;;;4980298;28;20197;-65
2023/01/22 09:11:04;;;;;;;3.58;3.30;;;19.40;50.00;;;;;;4989371;28;20309;-65
2023/01/22 09:13:30;;;;;;;4.07;3.78;;;19.30;49.90;;;;;;4985683;28;20250;-66
2023/01/22 09:15:57;;;;;;;3.35;3.05;;;19.30;49.90;;;;;;4973048;28;20607;-64
2023/01/22 09:18:24;;;;;;;3.60;3.35;;;19.40;50.00;;;;;;4988183;28;20255;-65
2023/01/22 09:20:50;;;;;;;3.83;3.53;;;19.30;49.90;;;;;;4964152;28;20216;-66
2023/01/22 09:23:16;;;;;;;3.63;3.33;;;19.30;49.90;;;;;;4971345;28;20193;-66
2023/01/22 09:25:41;;;;;;;3.60;3.30;;;19.30;49.90;;;;;;4987390;28;20240;-66
2023/01/22 09:28:11;;;;;;;3.50;3.20;;;19.30;50.00;;;;;;4981463;28;20288;-65
2023/01/22 09:30:41;;;;;;;3.58;3.28;;;19.30;49.90;;;;;;4963346;28;20206;-64
2023/01/22 09:33:07;;;;;;;3.40;3.20;;;19.30;49.90;;;;;;4971956;28;20224;-65
2023/01/22 09:35:33;;;;;;;3.40;3.10;;;19.30;49.90;;;;;;5002088;28;20220;-63
2023/01/22 09:38:00;;;;;;;3.17;2.97;;;19.30;49.90;;;;;;4990480;28;20197;-66
2023/01/22 09:40:30;;;;;;;3.33;3.13;;;19.40;50.00;;;;;;4979223;28;20213;-65
2023/01/22 09:43:22;;;;;;;3.42;3.13;;;19.30;49.90;;;;;;4963792;28;20569;-65
2023/01/22 09:45:55;;;;;;;3.13;2.92;;;19.30;49.90;;;;;;4996697;28;20189;-65
2023/01/22 09:48:28;;;;;;;3.00;2.80;;;19.40;50.00;;;;;;4963115;28;20197;-64
2023/01/22 09:50:54;;;;;;;2.95;2.75;;;19.40;50.00;;;;;;4975575;28;20217;-66
2023/01/22 09:53:20;;;;;;;3.05;2.85;;;19.30;49.80;;;;;;4991477;28;20201;-64
2023/01/22 09:55:50;;;;;;;3.10;2.90;;;19.30;49.80;;;;;;4982779;28;20216;-65
2023/01/22 09:58:21;;;;;;;2.80;2.60;;;19.40;49.90;;;;;;4987280;28;20205;-66
2023/01/22 10:00:58;;;;;;;3.05;2.85;;;19.30;49.90;;;;;;4994843;28;20218;-65
2023/01/22 10:03:49;;;;;;;3.10;2.90;;;19.30;49.80;;;;;;4975367;28;20257;-65
2023/01/22 10:06:21;;;;;;;3.00;2.78;;;19.30;49.80;;;;;;4967137;28;20209;-64
2023/01/22 10:09:06;;;;;;;3.10;2.90;;;19.40;49.90;;;;;;4974978;28;20575;-64
2023/01/22 10:11:33;;;;;;;3.25;2.97;;;19.30;49.80;;;;;;4974891;28;20220;-64
2023/01/22 10:14:01;;;;;;;3.05;2.83;;;19.40;49.90;;;;;;4991171;28;20220;-64
2023/01/22 10:16:28;;;;;;;3.00;2.80;;;19.30;50.40;;;;;;4984315;28;20196;-64
2023/01/22 10:19:22;;;;;;;2.88;2.67;;;19.30;49.80;;;;;;4963697;28;20189;-64
2023/01/22 10:21:57;;;;;;;2.80;2.60;;;19.30;49.90;;;;;;4998756;28;20220;-64
2023/01/22 10:24:23;;;;;;;2.63;2.42;;;19.40;49.90;;;;;;4980569;28;20183;-65
2023/01/22 10:26:54;;;;;;;2.60;2.40;;;19.40;49.90;;;;;;4978171;28;20689;-65
2023/01/22 10:29:33;;;;;;;2.90;2.70;;;19.40;50.00;;;;;;4982724;28;20280;-65
2023/01/22 10:32:24;;;;;;;3.13;2.92;;;19.30;49.90;;;;;;4967739;28;20205;-65
2023/01/22 10:35:09;;;;;;;2.88;2.67;;;19.40;49.90;;;;;;4986058;28;20212;-64
2023/01/22 10:37:48;;;;;;;2.88;2.70;;;19.30;49.90;;;;;;4988650;28;20284;-65
2023/01/22 10:40:39;;;;;;;2.58;2.25;;;19.40;50.00;;;;;;4985412;28;20284;-64
2023/01/22 10:43:16;;;;;;;2.53;2.33;;;19.40;50.00;;;;;;4987104;28;20198;-64
2023/01/22 10:45:58;;;;;;;2.67;2.47;;;19.40;50.00;;;;;;4987155;28;20189;-65
2023/01/22 10:48:24;;;;;;;2.38;2.28;;;19.40;50.00;;;;;;4987963;28;20200;-65
2023/01/22 10:51:12;;;;;;;2.33;2.22;;;19.40;50.00;;;;;;4987085;28;20213;-64
2023/01/22 10:53:53;;;;;;;2.40;2.20;;;19.40;50.00;;;;;;4986541;28;20250;-62
2023/01/22 10:56:39;;;;;;;2.45;2.25;;;19.40;50.00;;;;;;4957668;28;20185;-63
2023/01/22 10:59:28;;;;;;;2.28;2.08;;;19.40;50.00;;;;;;4990167;28;20178;-64
2023/01/22 11:02:01;;;;;;;2.05;1.95;;;19.40;50.00;;;;;;5004201;23;20231;-67
2023/01/22 11:04:34;;;;;;;2.28;2.08;;;19.40;49.90;;;;;;4991755;28;20201;-67
2023/01/22 11:07:14;;;;;;;2.50;2.30;;;19.40;50.00;;;;;;4994300;28;20191;-67
2023/01/22 11:10:24;;;;;;;3.17;2.30;;;19.40;50.00;;;;;;5013622;28;20617;-66
2023/01/22 11:12:57;;;;;;;2.10;2.00;;;19.40;49.90;;;;;;4970393;28;20216;-68
2023/01/22 11:15:39;;;;;;;2.53;2.33;;;19.40;50.00;;;;;;4986411;28;20216;-68
2023/01/22 11:18:07;;;;;;;1.92;1.70;;;19.40;49.90;;;;;;4996354;28;20180;-66
2023/01/22 11:20:55;;;;;;;2.60;2.13;;;19.40;49.90;;;;;;4996523;28;20202;-67
2023/01/22 11:23:42;;;;;;;2.00;1.90;;;19.40;50.00;;;;;;4996615;28;20184;-67
2023/01/22 11:26:47;;;;;;;2.70;2.03;;;19.40;50.00;;;;;;4980284;28;20192;-67
2023/01/22 11:29:30;;;;;;;2.22;2.10;;;19.40;50.00;;;;;;4996339;28;20191;-67
2023/01/22 11:32:43;;;;;;;2.45;2.20;;;19.40;50.00;;;;;;4995962;28;20208;-67
2023/01/22 11:35:22;;;;;;;3.75;2.28;;;19.40;50.00;;;;;;4996078;28;20200;-66
2023/01/22 11:38:14;;;;;;;2.30;2.10;;;19.40;49.90;;;;;;4979794;28;20183;-67
2023/01/22 11:40:52;;;;;;;2.08;1.77;;;19.40;50.00;;;;;;4995427;28;20263;-67
2023/01/22 11:43:58;;;;;;;2.75;2.13;;;19.50;50.10;;;;;;4993256;28;20215;-67
2023/01/22 11:46:36;;;;;;;2.08;1.92;;;19.50;50.00;;;;;;4979787;28;20184;-66
2023/01/22 11:50:04;;;;;;;2.10;2.00;;;19.40;50.00;;;;;;4979965;28;20727;-67
2023/01/22 11:52:58;;;;;;;2.10;2.00;;;19.40;50.00;;;;;;5013322;28;20241;-67
2023/01/22 11:55:53;;;;;;;1.98;1.88;;;19.40;50.00;;;;;;4997786;28;20658;-68
2023/01/22 11:58:53;;;;;;;2.05;1.85;;;19.40;50.00;;;;;;4995759;28;20192;-67
2023/01/22 12:02:01;;;;;;;2.20;2.00;;;19.40;50.00;;;;;;5000042;28;20282;-67
2023/01/22 12:04:51;;;;;;;2.13;1.73;;;19.40;49.90;;;;;;4987713;28;20319;-67
2023/01/22 12:07:50;;;;;;;2.03;1.92;;;19.40;49.90;;;;;;5003720;28;20191;-67
2023/01/22 12:10:35;;;;;;;2.28;2.10;;;19.40;49.80;;;;;;4984926;28;20777;-67
2023/01/22 12:13:56;;;;;;;2.10;2.00;;;19.40;49.80;;;;;;5013135;28;20184;-67
2023/01/22 12:16:34;;;;;;;1.83;1.73;;;19.40;49.90;;;;;;4984617;28;20205;-67
2023/01/22 12:19:18;;;;;;;1.70;1.60;;;19.40;49.90;;;;;;4992577;28;20185;-67
2023/01/22 12:22:24;;;;;;;2.10;1.90;;;19.50;50.00;;;;;;4975870;28;20224;-67
2023/01/22 12:25:12;;;;;;;2.28;1.65;;;19.40;49.80;;;;;;5015678;28;20653;-67
2023/01/22 12:28:04;;;;;;;1.70;1.60;;;19.40;50.00;;;;;;4987190;28;20287;-67
2023/01/22 12:30:57;;;;;;;1.63;1.52;;;19.40;49.80;;;;;;5016561;28;20204;-67
2023/01/22 12:33:30;;;;;;;2.38;1.92;;;19.40;49.80;;;;;;4995119;28;20195;-67
2023/01/22 12:36:01;;;;;;;1.70;1.60;;;19.40;49.80;;;;;;4979128;28;20208;-66
2023/01/22 12:38:40;;;;;;;1.90;1.80;;;19.40;49.80;;;;;;4978980;28;20188;-67
2023/01/22 12:41:44;;;;;;;3.10;1.80;;;19.40;49.80;;;;;;4995021;28;20254;-67
2023/01/22 12:44:37;;;;;;;3.05;1.80;;;19.40;49.80;;;;;;4947097;28;20212;-67
2023/01/22 12:47:29;;;;;;;1.90;1.80;;;19.40;49.80;;;;;;4978981;28;20188;-68
2023/01/22 12:49:55;;;;;;;1.80;1.70;;;19.40;49.80;;;;;;5012470;28;20220;-67
2023/01/22 12:52:39;;;;;;;2.00;1.80;;;19.40;49.80;;;;;;4978522;28;20230;-67
2023/01/22 12:55:42;;;;;;;2.05;1.90;;;19.40;49.80;;;;;;4995187;28;20220;-67
2023/01/22 12:58:27;;;;;;;1.98;1.88;;;19.40;49.80;;;;;;4954858;28;20203;-66
2023/01/22 13:01:12;;;;;;;1.67;1.58;;;19.40;49.80;;;;;;5008665;28;20235;-67
2023/01/22 13:03:40;;;;;;;1.90;1.80;;;19.50;49.80;;;;;;4975850;28;20203;-68
2023/01/22 13:06:28;;;;;;;1.85;1.60;;;19.40;49.80;;;;;;4994778;28;20241;-67
2023/01/22 13:08:54;;;;;;;1.67;1.58;;;19.40;49.80;;;;;;4994666;28;20254;-66
2023/01/22 13:11:36;;;;;;;2.20;2.00;;;19.40;49.70;;;;;;4994334;28;20215;-67
2023/01/22 13:14:24;;;;;;;1.58;1.38;;;19.40;49.70;;;;;;4994259;28;20294;-68
2023/01/22 13:17:03;;;;;;;1.60;1.50;;;19.40;49.80;;;;;;5012280;28;20188;-68
2023/01/22 13:19:40;;;;;;;1.42;1.33;;;19.40;49.80;;;;;;4981406;28;20274;-67
2023/01/22 13:22:15;;;;;;;1.80;1.70;;;19.50;49.90;;;;;;4982867;28;20222;-75